Decoded Metar for KDYA ( in ) (IATA:) | Meteo·Mobile Aviation Weather
aviador You're here:

KDYA Decoded Metar

in
Report Time2019-05-22 07:35:00
UTC Time2019-05-22 07:47:33
Flight Rules vfr VFR
WindCalm
Visibility9999 m
Phenomena:N/A
Clouds:N/A
Expected CloudBase > 800 ft AGL from Temp-Dew spread
CeilingNone
Temp20°C
Dew Point18°C (88% RH)
QNH1015 hPa
Raw Report
METAR KDYA 220735Z AUTO 00000KT 10SM CLR 20/18 A2996 RMK AO2 T02000184=

Extra information for KDYA:More info

Social comments